createdAt,value
2023-03-11T00:01:00.230Z,2.70
2023-03-11T00:03:49.599Z,0.70
2023-03-11T00:06:37.725Z,0.50
2023-03-11T00:09:27.123Z,0.40
2023-03-11T00:12:16.030Z,0.20
2023-03-11T00:15:06.204Z,0.00
2023-03-11T00:17:54.144Z,0.20
2023-03-11T00:20:43.674Z,0.00
2023-03-11T00:23:36.009Z,-0.10
2023-03-11T00:26:27.189Z,2.00
2023-03-11T00:29:17.717Z,-1.50
2023-03-11T00:32:05.729Z,1.90
2023-03-11T00:34:54.104Z,-0.10
2023-03-11T00:37:42.570Z,0.00
2023-03-11T00:40:32.132Z,-2.00
2023-03-11T00:43:25.087Z,0.20
2023-03-11T00:46:12.819Z,0.30
2023-03-11T00:49:00.704Z,1.40
2023-03-11T00:51:49.312Z,0.50
2023-03-11T00:54:39.121Z,0.30
2023-03-11T00:57:30.588Z,-0.70
2023-03-11T01:00:25.620Z,0.20
2023-03-11T01:03:16.164Z,-0.90
2023-03-11T01:06:06.232Z,0.20
2023-03-11T01:08:56.686Z,2.50
2023-03-11T01:11:45.865Z,0.30
2023-03-11T01:14:41.071Z,0.00
2023-03-11T01:17:31.873Z,-0.10
2023-03-11T01:20:20.276Z,-0.40
2023-03-11T01:23:11.236Z,-0.30
2023-03-11T01:26:04.696Z,0.60
2023-03-11T01:28:53.889Z,-0.50
2023-03-11T01:31:42.004Z,-0.60
2023-03-11T01:34:35.071Z,-0.70
2023-03-11T01:37:27.054Z,0.40
2023-03-11T01:40:21.462Z,-0.30
2023-03-11T01:43:25.199Z,-0.40
2023-03-11T01:46:18.719Z,-0.40
2023-03-11T01:49:07.718Z,-0.70
2023-03-11T01:52:02.373Z,-0.50
2023-03-11T01:54:53.471Z,-0.40
2023-03-11T01:57:45.670Z,-0.50
2023-03-11T02:00:36.007Z,-0.30
2023-03-11T02:03:28.314Z,1.90
2023-03-11T02:06:17.746Z,-0.40
2023-03-11T02:09:07.469Z,0.50
2023-03-11T02:11:58.320Z,-0.10
2023-03-11T02:14:49.609Z,0.00
2023-03-11T02:17:41.788Z,0.10
2023-03-11T02:20:37.611Z,0.20
2023-03-11T02:23:35.810Z,0.20
2023-03-11T02:26:30.576Z,0.30
2023-03-11T02:29:20.657Z,1.60
2023-03-11T02:32:13.269Z,0.30
2023-03-11T02:35:04.997Z,0.50
2023-03-11T02:37:53.785Z,0.50
2023-03-11T02:40:54.484Z,0.50
2023-03-11T02:43:46.620Z,1.70
2023-03-11T02:46:38.601Z,0.50
2023-03-11T02:49:26.968Z,0.60
2023-03-11T02:52:14.827Z,0.50
2023-03-11T02:55:06.467Z,0.60
2023-03-11T02:57:57.581Z,0.50
2023-03-11T03:00:45.860Z,0.70
2023-03-11T03:03:36.123Z,0.20
2023-03-11T03:06:25.145Z,0.10
2023-03-11T03:09:14.142Z,0.00
2023-03-11T03:12:06.435Z,-0.10
2023-03-11T03:14:58.768Z,0.30
2023-03-11T03:17:47.681Z,0.50
2023-03-11T03:20:37.661Z,-0.20
2023-03-11T03:23:26.458Z,1.90
2023-03-11T03:26:15.215Z,0.00
2023-03-11T03:29:06.268Z,-0.20
2023-03-11T03:31:58.643Z,1.40
2023-03-11T03:34:49.912Z,-0.40
2023-03-11T03:37:40.298Z,-0.50
2023-03-11T03:40:28.801Z,-0.40
2023-03-11T03:43:21.097Z,-0.20
2023-03-11T03:46:10.092Z,-0.20
2023-03-11T03:49:05.073Z,0.10
2023-03-11T03:51:56.668Z,0.10
2023-03-11T03:54:53.611Z,0.10
2023-03-11T03:57:50.935Z,2.30
2023-03-11T04:00:41.536Z,0.40
2023-03-11T04:03:32.236Z,1.70
2023-03-11T04:06:27.471Z,-0.10
2023-03-11T04:09:25.181Z,-0.10
2023-03-11T04:12:17.834Z,0.00
2023-03-11T04:15:09.906Z,-0.30
2023-03-11T04:17:59.878Z,-2.40
2023-03-11T04:20:50.046Z,-1.00
2023-03-11T04:23:37.808Z,-0.30
2023-03-11T04:26:26.992Z,-2.60
2023-03-11T04:29:16.950Z,-0.80
2023-03-11T04:32:12.966Z,-0.10
2023-03-11T04:35:03.130Z,-0.30
2023-03-11T04:37:51.275Z,-0.80
2023-03-11T04:40:44.414Z,-0.70
2023-03-11T04:43:36.196Z,-1.00
2023-03-11T04:46:26.039Z,-0.50
2023-03-11T04:49:14.312Z,-1.10
2023-03-11T04:52:06.896Z,-1.00
2023-03-11T04:55:02.576Z,-1.10
2023-03-11T04:57:55.351Z,-1.10
2023-03-11T05:00:46.986Z,-1.20
2023-03-11T05:03:40.865Z,-1.00
2023-03-11T05:06:32.795Z,-1.10
2023-03-11T05:09:25.848Z,-0.70
2023-03-11T05:12:14.406Z,-0.90
2023-03-11T05:15:07.504Z,0.70
2023-03-11T05:17:55.883Z,-1.10
2023-03-11T05:20:45.968Z,-0.80
2023-03-11T05:23:36.027Z,-1.00
2023-03-11T05:26:28.688Z,-1.20
2023-03-11T05:29:20.279Z,-1.20
2023-03-11T05:32:12.513Z,-1.20
2023-03-11T05:35:03.156Z,-1.20
2023-03-11T05:37:59.873Z,-1.30
2023-03-11T05:40:49.996Z,-1.00
2023-03-11T05:43:40.114Z,-1.40
2023-03-11T05:46:28.925Z,-1.20
2023-03-11T05:49:21.644Z,-1.00
2023-03-11T05:52:12.117Z,-1.20
2023-03-11T05:55:05.271Z,-1.40
2023-03-11T05:57:54.295Z,-2.10
2023-03-11T06:00:43.430Z,-1.50
2023-03-11T06:03:31.473Z,-1.60
2023-03-11T06:06:19.906Z,-1.70
2023-03-11T06:09:13.300Z,-1.50
2023-03-11T06:12:04.166Z,-0.40
2023-03-11T06:15:04.648Z,-1.50
2023-03-11T06:17:56.046Z,-1.80
2023-03-11T06:20:47.431Z,-2.90
2023-03-11T06:23:37.279Z,-1.70
2023-03-11T06:26:27.079Z,-1.90
2023-03-11T06:29:22.103Z,-1.70
2023-03-11T06:32:12.110Z,-1.60
2023-03-11T06:35:00.312Z,-1.70
2023-03-11T06:37:48.600Z,-1.60
2023-03-11T06:40:38.437Z,-1.20
2023-03-11T06:43:26.474Z,-1.60
2023-03-11T06:46:18.180Z,-1.60
2023-03-11T06:49:11.829Z,-1.60
2023-03-11T06:52:01.905Z,-1.50
2023-03-11T06:54:52.924Z,-1.50
2023-03-11T06:57:42.146Z,-1.40
2023-03-11T07:00:33.613Z,-1.50
2023-03-11T07:03:24.820Z,-1.50
2023-03-11T07:06:13.973Z,-1.40
2023-03-11T07:09:02.189Z,-0.40
2023-03-11T07:11:55.853Z,-1.30
2023-03-11T07:14:51.658Z,-1.00
2023-03-11T07:17:39.687Z,-1.20
2023-03-11T07:20:33.662Z,-1.10
2023-03-11T07:23:26.103Z,-0.80
2023-03-11T07:26:17.661Z,-0.80
2023-03-11T07:29:05.509Z,-1.00
2023-03-11T07:31:55.178Z,-0.70
2023-03-11T07:34:43.271Z,-0.50
2023-03-11T07:37:33.623Z,-0.90
2023-03-11T07:40:21.634Z,-1.00
2023-03-11T07:43:12.136Z,-0.90
2023-03-11T07:46:07.575Z,-0.80
2023-03-11T07:48:56.604Z,-0.90
2023-03-11T07:51:47.159Z,1.60
2023-03-11T07:54:36.248Z,-0.90
2023-03-11T07:57:24.170Z,-0.80
2023-03-11T08:00:12.996Z,-1.20
2023-03-11T08:03:03.477Z,-0.70
2023-03-11T08:05:52.276Z,-0.80
2023-03-11T08:08:40.093Z,-0.60
2023-03-11T08:11:29.919Z,-0.10
2023-03-11T08:14:17.772Z,-0.50
2023-03-11T08:17:05.620Z,-0.30
2023-03-11T08:19:56.421Z,-0.50
2023-03-11T08:22:57.766Z,1.50
2023-03-11T08:25:46.488Z,-0.40
2023-03-11T08:28:35.630Z,-0.20
2023-03-11T08:31:24.592Z,-0.30
2023-03-11T08:34:13.132Z,-0.20
2023-03-11T08:37:00.730Z,0.00
2023-03-11T08:39:48.603Z,-0.10
2023-03-11T08:42:37.283Z,0.20
2023-03-11T08:45:30.684Z,0.40
2023-03-11T08:48:18.913Z,0.50
2023-03-11T08:51:13.284Z,0.40
2023-03-11T08:54:03.075Z,0.60
2023-03-11T08:56:51.102Z,0.50
2023-03-11T08:59:41.183Z,0.60
2023-03-11T09:02:39.900Z,0.80
2023-03-11T09:05:28.596Z,0.70
2023-03-11T09:08:20.191Z,0.80
2023-03-11T09:11:08.648Z,2.00
2023-03-11T09:13:57.440Z,1.00
2023-03-11T09:16:45.641Z,1.00
2023-03-11T09:19:39.804Z,3.20
2023-03-11T09:22:31.277Z,1.40
2023-03-11T09:25:21.814Z,1.30
2023-03-11T09:28:10.958Z,1.50
2023-03-11T09:31:02.854Z,1.70
2023-03-11T09:33:55.819Z,2.00
2023-03-11T09:36:45.106Z,2.10
2023-03-11T09:39:33.662Z,2.40
2023-03-11T09:42:23.719Z,2.60
2023-03-11T09:45:16.726Z,3.30
2023-03-11T09:48:22.719Z,3.20
2023-03-11T09:51:17.470Z,3.50
2023-03-11T09:54:07.274Z,4.00
2023-03-11T09:56:57.149Z,4.00
2023-03-11T09:59:46.719Z,4.20
2023-03-11T10:02:40.875Z,4.50
2023-03-11T10:05:29.967Z,4.70
2023-03-11T10:08:21.371Z,5.00
2023-03-11T10:11:16.174Z,5.10
2023-03-11T10:14:15.504Z,5.30
2023-03-11T10:17:09.568Z,5.20
2023-03-11T10:20:01.211Z,5.20
2023-03-11T10:23:00.092Z,5.20
2023-03-11T10:25:53.340Z,4.90
2023-03-11T10:28:46.742Z,5.00
2023-03-11T10:31:40.373Z,5.10
2023-03-11T10:34:33.844Z,5.20
2023-03-11T10:37:33.261Z,5.60
2023-03-11T10:40:32.212Z,5.80
2023-03-11T10:43:23.160Z,6.10
2023-03-11T10:46:21.916Z,6.40
2023-03-11T10:49:19.618Z,6.00
2023-03-11T10:52:10.417Z,6.00
2023-03-11T10:55:03.209Z,6.30
2023-03-11T10:57:51.629Z,6.10
2023-03-11T11:00:41.390Z,6.30
2023-03-11T11:03:31.091Z,6.40
2023-03-11T11:06:23.822Z,6.40
2023-03-11T11:09:16.897Z,6.90
2023-03-11T11:12:06.593Z,6.20
2023-03-11T11:14:55.579Z,6.00
2023-03-11T11:17:48.896Z,5.70
2023-03-11T11:20:39.596Z,5.80
2023-03-11T11:23:33.489Z,7.90
2023-03-11T11:26:23.490Z,6.60
2023-03-11T11:29:15.646Z,8.60
2023-03-11T11:32:21.162Z,6.20
2023-03-11T11:35:12.064Z,7.70
2023-03-11T11:38:04.535Z,6.00
2023-03-11T11:40:55.317Z,8.20
2023-03-11T11:43:57.149Z,6.10
2023-03-11T11:46:51.519Z,6.90
2023-03-11T11:49:52.200Z,6.90
2023-03-11T11:52:45.741Z,7.00
2023-03-11T11:55:35.805Z,7.50
2023-03-11T11:58:29.291Z,7.50
2023-03-11T12:01:22.508Z,7.40
2023-03-11T12:04:22.157Z,7.90
2023-03-11T12:07:19.151Z,9.60
2023-03-11T12:10:23.717Z,7.50
2023-03-11T12:13:25.449Z,9.90
2023-03-11T12:16:20.385Z,7.50
2023-03-11T12:19:19.769Z,7.80
2023-03-11T12:22:19.984Z,7.10
2023-03-11T12:25:22.326Z,7.60
2023-03-11T12:28:20.000Z,8.00
2023-03-11T12:31:13.422Z,7.90
2023-03-11T12:34:03.404Z,7.90
2023-03-11T12:36:52.722Z,9.00
2023-03-11T12:39:44.329Z,7.30
2023-03-11T12:42:41.631Z,9.90
2023-03-11T12:45:53.755Z,7.90
2023-03-11T12:48:44.963Z,7.10
2023-03-11T12:51:45.435Z,7.30
2023-03-11T12:54:34.447Z,7.40
2023-03-11T12:57:34.471Z,8.00
2023-03-11T13:00:29.041Z,8.00
2023-03-11T13:03:37.599Z,8.10
2023-03-11T13:06:33.972Z,8.20
2023-03-11T13:09:25.494Z,8.00
2023-03-11T13:12:32.850Z,8.10
2023-03-11T13:15:31.613Z,8.20
2023-03-11T13:18:24.910Z,7.90
2023-03-11T13:21:28.848Z,7.60
2023-03-11T13:24:35.957Z,7.90
2023-03-11T13:27:34.193Z,6.10
2023-03-11T13:30:25.213Z,8.30
2023-03-11T13:33:21.459Z,8.50
2023-03-11T13:36:18.761Z,6.70
2023-03-11T13:39:21.973Z,10.10
2023-03-11T13:42:19.725Z,9.30
2023-03-11T13:45:10.753Z,10.80
2023-03-11T13:48:00.459Z,8.90
2023-03-11T13:50:52.315Z,8.50
2023-03-11T13:53:59.565Z,8.70
2023-03-11T13:57:05.189Z,7.30
2023-03-11T13:59:55.978Z,4.80
2023-03-11T14:02:51.536Z,7.00
2023-03-11T14:05:42.186Z,7.60
2023-03-11T14:08:35.057Z,7.00
2023-03-11T14:11:26.714Z,7.30
2023-03-11T14:14:27.828Z,8.20
2023-03-11T14:17:17.697Z,9.70
2023-03-11T14:20:10.951Z,9.40
2023-03-11T14:22:58.946Z,10.00
2023-03-11T14:25:46.750Z,10.10
2023-03-11T14:28:37.586Z,11.60
2023-03-11T14:31:27.144Z,10.40
2023-03-11T14:34:19.136Z,10.10
2023-03-11T14:37:22.782Z,10.20
2023-03-11T14:40:24.210Z,10.00
2023-03-11T14:43:14.733Z,9.70
2023-03-11T14:46:02.768Z,10.10
2023-03-11T14:48:51.513Z,10.80
2023-03-11T14:51:39.807Z,11.70
2023-03-11T14:54:31.102Z,11.70
2023-03-11T14:57:21.058Z,12.50
2023-03-11T15:00:16.077Z,12.00
2023-03-11T15:03:07.532Z,11.40
2023-03-11T15:05:56.489Z,11.30
2023-03-11T15:08:46.360Z,10.60
2023-03-11T15:11:46.893Z,10.20
2023-03-11T15:14:35.496Z,10.20
2023-03-11T15:17:42.868Z,10.30
2023-03-11T15:20:34.857Z,9.70
2023-03-11T15:23:24.359Z,9.90
2023-03-11T15:26:19.020Z,12.00
2023-03-11T15:29:16.816Z,9.10
2023-03-11T15:32:20.341Z,8.40
2023-03-11T15:35:18.104Z,8.10
2023-03-11T15:38:21.256Z,7.80
2023-03-11T15:41:12.073Z,7.60
2023-03-11T15:44:03.260Z,7.60
2023-03-11T15:46:55.717Z,7.60
2023-03-11T15:49:44.352Z,7.30
2023-03-11T15:52:32.319Z,7.70
2023-03-11T15:55:21.091Z,7.10
2023-03-11T15:58:09.822Z,7.30
2023-03-11T16:01:00.112Z,7.30
2023-03-11T16:03:49.608Z,8.20
2023-03-11T16:06:37.972Z,7.30
2023-03-11T16:09:29.246Z,7.30
2023-03-11T16:12:18.375Z,7.10
2023-03-11T16:15:07.751Z,9.10
2023-03-11T16:17:59.793Z,7.60
2023-03-11T16:20:50.272Z,7.60
2023-03-11T16:23:51.119Z,7.20
2023-03-11T16:26:41.995Z,6.80
2023-03-11T16:29:33.703Z,6.90
2023-03-11T16:32:22.318Z,7.00
2023-03-11T16:35:11.372Z,6.90
2023-03-11T16:38:00.946Z,6.80
2023-03-11T16:40:56.663Z,7.70
2023-03-11T16:43:45.062Z,7.00
2023-03-11T16:46:33.290Z,6.70
2023-03-11T16:49:24.046Z,4.70
2023-03-11T16:52:13.018Z,6.40
2023-03-11T16:55:04.687Z,6.00
2023-03-11T16:57:54.948Z,6.10
2023-03-11T17:00:43.148Z,5.90
2023-03-11T17:03:40.996Z,5.80
2023-03-11T17:06:30.570Z,6.00
2023-03-11T17:09:20.838Z,5.80
2023-03-11T17:12:13.636Z,5.80
2023-03-11T17:15:02.094Z,7.00
2023-03-11T17:17:49.594Z,5.60
2023-03-11T17:20:39.814Z,5.70
2023-03-11T17:23:34.556Z,5.30
2023-03-11T17:26:22.860Z,5.20
2023-03-11T17:29:12.781Z,7.30
2023-03-11T17:32:01.370Z,5.10
2023-03-11T17:34:49.626Z,5.00
2023-03-11T17:37:40.648Z,5.00
2023-03-11T17:40:30.340Z,3.30
2023-03-11T17:43:20.479Z,4.70
2023-03-11T17:46:16.677Z,4.60
2023-03-11T17:49:06.337Z,6.70
2023-03-11T17:51:54.382Z,4.50
2023-03-11T17:54:42.274Z,6.20
2023-03-11T17:57:44.546Z,4.40
2023-03-11T18:00:33.411Z,4.30
2023-03-11T18:03:23.086Z,5.30
2023-03-11T18:06:13.868Z,3.50
2023-03-11T18:09:05.128Z,4.10
2023-03-11T18:11:52.721Z,5.20
2023-03-11T18:14:40.333Z,4.20
2023-03-11T18:17:29.423Z,4.20
2023-03-11T18:20:23.406Z,3.90
2023-03-11T18:23:11.281Z,6.00
2023-03-11T18:25:59.464Z,3.90
2023-03-11T18:28:49.849Z,3.80
2023-03-11T18:31:38.858Z,3.70
2023-03-11T18:34:26.853Z,3.60
2023-03-11T18:37:17.356Z,3.40
2023-03-11T18:40:07.462Z,3.90
2023-03-11T18:42:55.920Z,3.80
2023-03-11T18:45:56.175Z,3.30
2023-03-11T18:48:44.397Z,3.10
2023-03-11T18:51:35.584Z,4.50
2023-03-11T18:54:24.657Z,2.90
2023-03-11T18:57:12.280Z,3.20
2023-03-11T19:00:00.014Z,0.80
2023-03-11T19:02:51.118Z,2.50
2023-03-11T19:05:39.533Z,2.50
2023-03-11T19:08:27.202Z,2.40
2023-03-11T19:11:18.168Z,2.20
2023-03-11T19:14:06.254Z,3.10
2023-03-11T19:16:53.831Z,2.20
2023-03-11T19:19:41.167Z,2.40
2023-03-11T19:22:28.979Z,2.00
2023-03-11T19:25:16.470Z,0.20
2023-03-11T19:28:06.455Z,3.90
2023-03-11T19:30:55.201Z,1.90
2023-03-11T19:33:45.741Z,1.90
2023-03-11T19:36:34.420Z,1.90
2023-03-11T19:39:25.107Z,1.80
2023-03-11T19:42:15.475Z,1.70
2023-03-11T19:45:05.073Z,1.80
2023-03-11T19:47:58.299Z,2.10
2023-03-11T19:50:49.220Z,2.00
2023-03-11T19:53:37.789Z,1.60
2023-03-11T19:56:27.799Z,1.70
2023-03-11T19:59:16.276Z,1.70
2023-03-11T20:02:07.830Z,2.90
2023-03-11T20:04:58.038Z,3.00
2023-03-11T20:07:46.792Z,2.30
2023-03-11T20:10:35.241Z,2.40
2023-03-11T20:13:24.830Z,2.50
2023-03-11T20:16:17.225Z,3.00
2023-03-11T20:19:10.911Z,2.80
2023-03-11T20:21:59.056Z,2.80
2023-03-11T20:24:48.742Z,2.90
2023-03-11T20:27:36.467Z,2.90
2023-03-11T20:30:24.588Z,3.00
2023-03-11T20:33:13.662Z,3.10
2023-03-11T20:36:07.465Z,3.10
2023-03-11T20:38:58.490Z,4.80
2023-03-11T20:41:46.850Z,2.90
2023-03-11T20:44:34.881Z,3.10
2023-03-11T20:47:23.054Z,4.60
2023-03-11T20:50:11.380Z,2.70
2023-03-11T20:53:04.504Z,2.90
2023-03-11T20:55:55.310Z,2.60
2023-03-11T20:58:44.690Z,2.70
2023-03-11T21:01:36.561Z,2.30
2023-03-11T21:04:25.399Z,1.80
2023-03-11T21:07:13.834Z,2.30
2023-03-11T21:10:04.206Z,2.30
2023-03-11T21:12:54.995Z,3.00
2023-03-11T21:15:43.149Z,1.60
2023-03-11T21:18:31.740Z,2.60
2023-03-11T21:21:22.536Z,2.50
2023-03-11T21:24:11.646Z,2.70
2023-03-11T21:27:02.100Z,2.90
2023-03-11T21:29:50.094Z,2.60
2023-03-11T21:32:40.406Z,2.80
2023-03-11T21:35:30.024Z,2.70
2023-03-11T21:38:18.697Z,1.90
2023-03-11T21:41:08.563Z,3.10
2023-03-11T21:43:58.497Z,2.60
2023-03-11T21:46:46.907Z,2.90
2023-03-11T21:49:36.297Z,2.50
2023-03-11T21:52:24.300Z,2.50
2023-03-11T21:55:12.505Z,2.90
2023-03-11T21:58:01.100Z,2.70
2023-03-11T22:00:51.465Z,2.80
2023-03-11T22:03:42.945Z,2.50
2023-03-11T22:06:33.601Z,2.80
2023-03-11T22:09:23.582Z,2.60
2023-03-11T22:12:11.670Z,4.60
2023-03-11T22:15:01.828Z,2.80
2023-03-11T22:17:51.457Z,2.80
2023-03-11T22:20:39.321Z,2.60
2023-03-11T22:23:27.527Z,2.80
2023-03-11T22:26:16.130Z,2.90
2023-03-11T22:29:04.498Z,3.10
2023-03-11T22:32:01.636Z,3.00
2023-03-11T22:34:51.686Z,3.20
2023-03-11T22:37:40.028Z,3.00
2023-03-11T22:40:27.830Z,3.00
2023-03-11T22:43:16.318Z,3.00
2023-03-11T22:46:05.959Z,3.00
2023-03-11T22:48:54.674Z,3.40
2023-03-11T22:51:43.905Z,3.00
2023-03-11T22:54:35.341Z,3.10
2023-03-11T22:57:26.866Z,3.00
2023-03-11T23:00:20.269Z,3.00
2023-03-11T23:03:08.341Z,2.80
2023-03-11T23:05:59.253Z,3.00
2023-03-11T23:08:49.192Z,3.20
2023-03-11T23:11:37.292Z,3.30
2023-03-11T23:14:37.792Z,3.00
2023-03-11T23:17:30.089Z,3.10
2023-03-11T23:20:18.531Z,3.10
2023-03-11T23:23:06.918Z,3.10
2023-03-11T23:25:57.987Z,3.00
2023-03-11T23:28:46.770Z,3.00
2023-03-11T23:31:34.698Z,3.00
2023-03-11T23:34:23.042Z,2.90
2023-03-11T23:37:11.541Z,2.80
2023-03-11T23:39:59.915Z,3.00
2023-03-11T23:42:50.804Z,2.90
2023-03-11T23:45:39.269Z,2.80
2023-03-11T23:48:26.848Z,2.90
2023-03-11T23:51:18.510Z,3.00
2023-03-11T23:54:07.665Z,2.90
2023-03-11T23:56:55.433Z,2.90
2023-03-11T23:59:45.707Z,3.00
